Aérodrome :
LOGIN :

S'inscrire | Disclaimer

   EN    FR    IT 

 










Légende :    VFR   VFR Marginal   IFR   IFR Intensif   IFR Très Intensif
Visi : 
Plafond : 
>= 8 km
>= 3000ft
5 à 8 km
1000 à 3000 ft
1500m à 5 km
500 à 1000 ft
800 à 1500m
200 à 500 ft
< 800m
< 200 ft
Symboles :   Orages  Brouillard  Fortes neiges  Fortes précipitations  Vent > 20 kt
SIGMETs :   Divers  Orages  Givrage  Turbulence  Onde Orograph.  Cendres Volcan.






- Altitude de l'aérodrome : -11 ft
- Code IATA : AMS


EHAM - Amsterdam Schiphol

DERNIER METAR :
  • 272055Z 19018KT 7000 -RADZ FEW005 BKN007 BKN010 11/10 Q0997 BECMG 9999 BKN012

METARs EXPIRÉS :
  • 272025Z 18017KT 150V220 6000 -RADZ FEW006 BKN008 BKN011 10/10 Q0997 BECMG 9999 BKN012
  • 271955Z 18018KT 150V210 4000 -RADZ FEW005 BKN007 BKN010 10/09 Q0997 BECMG 9999
  • 271925Z 18016KT 150V210 4500 -RADZ FEW005 BKN007 BKN010 10/09 Q0997 TEMPO 6000
  • 271855Z 18017KT 150V210 4500 -RADZ FEW005 BKN007 BKN010 10/09 Q0998 TEMPO 6000
  • 271825Z 17019KT 5000 -RADZ FEW005 BKN007 BKN010 10/09 Q0998 BECMG 9999
  • 271755Z 17018KT 7000 -RADZ SCT008 SCT012 BKN016 10/09 Q0998 BECMG 9999 BKN009

TAF TAF EHAM
Valide du 27 à 18h jusqu'au 29 à 00h UTC


271710Z 2718/2824 19018G28KT 7000 -RADZ BKN014
TEMPO 2718/2722 4000 RADZ BKN008
BECMG 2721/2723 25014KT 9999 NSW SCT020
BECMG 2801/2804 20012KT
TEMPO 2807/2824 23020G30KT 6000 SHRA SCT020CB BKN025
BECMG 2808/2810 21017KT
PROB30
TEMPO 2809/2824 4000 TSRA
BECMG 2820/2823 25014KT



MET'MAP, la Météo Aéronautique d'un coup d'oeil ! - Copyright ORBIFLY Décembre 2007 - Disclaimer

ORBIFLY MET'MAP TEAM :

Programmation & Développement : Alexandra Zaïnal
Sur une idée originale de : Baudouin d'Aumeries
Assistance à la programmation : Marc-Olivier Méhu
Soutien technique & logistique : Manuel Goepfert

Contact : metmap@orbifly.com




SOURCES & CREDITS :

   NOAA